Time;durP1;ratioP1;P1;durP2;ratioP2;P2;SDS_P1;SDS_P2;PMS_P1;PMS_P2;Temp;Humidity;BMP_temperature;BMP_pressure;BME280_temperature;BME280_humidity;BME280_pressure;Samples;Min_cycle;Max_cycle;Signal;HPM_P1;HPM_P2
2021/05/16 00:01:40;;;;;;;7.97;4.13;;;;;;;18.27;66.96;99078.41;5063537;28;20066;-69
2021/05/16 00:04:05;;;;;;;7.57;3.63;;;;;;;18.30;67.10;99090.53;5062942;28;20035;-68
2021/05/16 00:06:31;;;;;;;9.77;4.07;;;;;;;18.15;67.57;99081.03;5063943;28;20228;-69
2021/05/16 00:08:56;;;;;;;10.02;4.50;;;;;;;18.30;67.19;99088.66;5064113;28;20155;-74
2021/05/16 00:11:22;;;;;;;7.07;4.03;;;;;;;18.34;66.68;99086.34;5062086;28;20028;-73
2021/05/16 00:13:48;;;;;;;9.75;3.92;;;;;;;18.24;67.55;99091.44;5062147;28;20036;-68
2021/05/16 00:16:14;;;;;;;9.40;4.18;;;;;;;18.26;67.59;99083.97;5062253;28;20036;-68
2021/05/16 00:18:40;;;;;;;5.30;3.42;;;;;;;18.25;67.30;99091.19;5064927;28;20104;-74
2021/05/16 00:21:06;;;;;;;6.63;3.85;;;;;;;18.17;67.64;99091.53;5079215;28;20216;-69
2021/05/16 00:23:31;;;;;;;6.55;3.65;;;;;;;18.05;67.70;99075.41;5062040;28;20204;-73
2021/05/16 00:25:56;;;;;;;9.02;3.42;;;;;;;18.08;68.02;99091.03;5060072;28;20028;-69
2021/05/16 00:28:22;;;;;;;5.88;3.60;;;;;;;18.05;68.19;99083.44;5062000;28;20028;-74
2021/05/16 00:30:48;;;;;;;8.15;3.85;;;;;;;18.06;67.91;99087.75;5061210;28;20041;-68
2021/05/16 00:33:13;;;;;;;10.13;3.30;;;;;;;18.02;68.44;99099.97;5061165;28;20017;-74
2021/05/16 00:35:39;;;;;;;4.57;3.13;;;;;;;18.02;68.36;99099.16;5061399;28;20033;-74
2021/05/16 00:38:04;;;;;;;3.35;2.83;;;;;;;17.98;69.03;99093.41;5062591;28;20327;-69
2021/05/16 00:40:32;;;;;;;9.15;3.78;;;;;;;17.88;68.82;99077.06;5063366;28;20056;-73
2021/05/16 00:42:58;;;;;;;6.03;2.83;;;;;;;17.97;68.68;99097.13;5060363;28;20033;-74
2021/05/16 00:45:27;;;;;;;5.15;2.47;;;;;;;17.81;68.69;99069.13;5061831;28;20116;-69
2021/05/16 00:47:59;;;;;;;4.25;2.85;;;;;;;17.88;68.28;99085.09;5059701;28;20322;-74
2021/05/16 00:50:32;;;;;;;6.07;2.97;;;;;;;17.84;68.34;99083.91;5060759;28;20051;-69
2021/05/16 00:52:58;;;;;;;5.07;2.33;;;;;;;17.70;69.02;99077.91;5061194;28;20029;-69
2021/05/16 00:55:24;;;;;;;8.52;2.70;;;;;;;17.66;68.96;99073.16;5059703;28;20039;-74
2021/05/16 00:57:50;;;;;;;9.25;2.35;;;;;;;17.72;69.04;99085.72;5061405;28;20090;-74
2021/05/16 01:00:19;;;;;;;8.25;2.35;;;;;;;17.65;69.83;99084.91;5059286;28;20036;-74
2021/05/16 01:02:45;;;;;;;4.18;2.35;;;;;;;17.65;69.42;99076.88;5057782;28;20345;-73
2021/05/16 01:05:13;;;;;;;4.15;2.20;;;;;;;17.62;69.61;99082.69;5059621;28;20029;-74
2021/05/16 01:07:40;;;;;;;5.38;1.92;;;;;;;17.59;69.40;99083.94;5060778;28;20032;-74
2021/05/16 01:10:08;;;;;;;5.53;2.40;;;;;;;17.65;69.31;99083.06;5061822;28;20059;-69
2021/05/16 01:12:44;;;;;;;2.95;2.33;;;;;;;17.60;69.78;99077.53;5062995;28;20100;-69
2021/05/16 01:15:17;;;;;;;9.40;3.72;;;;;;;17.47;70.16;99081.19;5060967;28;20059;-73
2021/05/16 01:17:43;;;;;;;6.68;3.55;;;;;;;17.46;70.02;99076.06;5058079;28;20723;-68
2021/05/16 01:20:11;;;;;;;6.95;4.72;;;;;;;17.41;70.58;99078.59;5060023;28;20048;-68
2021/05/16 01:22:37;;;;;;;10.32;5.43;;;;;;;17.47;70.42;99072.34;5062895;28;20036;-68
2021/05/16 01:25:04;;;;;;;10.90;5.68;;;;;;;17.41;69.76;99063.34;5061532;28;20107;-69
2021/05/16 01:27:30;;;;;;;9.55;6.97;;;;;;;17.39;70.19;99069.97;5062785;28;20099;-73
2021/05/16 01:29:55;;;;;;;10.88;6.07;;;;;;;17.43;70.30;99068.47;5061236;28;20204;-69
2021/05/16 01:32:23;;;;;;;11.25;8.20;;;;;;;17.45;69.26;99069.88;5060779;28;20037;-69
2021/05/16 01:34:49;;;;;;;14.98;10.05;;;;;;;17.46;68.98;99068.03;5059477;28;20017;-68
2021/05/16 01:37:15;;;;;;;19.33;12.40;;;;;;;17.29;69.24;99070.47;5061427;28;20132;-68
2021/05/16 01:39:41;;;;;;;20.13;14.13;;;;;;;17.33;69.18;99063.63;5062531;28;20335;-73
2021/05/16 01:42:08;;;;;;;21.48;14.63;;;;;;;17.11;69.76;99049.88;5059225;28;20012;-73
2021/05/16 01:44:34;;;;;;;23.73;14.95;;;;;;;17.13;69.94;99058.50;5057666;28;20063;-69
2021/05/16 01:47:03;;;;;;;20.13;13.73;;;;;;;17.13;69.70;99063.03;5056601;28;20032;-73
2021/05/16 01:49:43;;;;;;;18.90;13.50;;;;;;;17.27;69.59;99072.56;5061152;28;20071;-73
2021/05/16 01:52:11;;;;;;;15.60;10.55;;;;;;;17.10;70.02;99077.66;5059985;28;20349;-69
2021/05/16 01:54:37;;;;;;;13.80;8.95;;;;;;;17.12;69.80;99072.09;5059886;28;20061;-68
2021/05/16 01:57:05;;;;;;;17.80;9.90;;;;;;;16.94;70.32;99077.41;5061192;28;20040;-73
2021/05/16 01:59:31;;;;;;;12.30;8.30;;;;;;;16.77;71.19;99077.13;5059698;28;20100;-74
2021/05/16 02:02:00;;;;;;;10.40;7.20;;;;;;;16.80;71.36;99074.84;5060042;28;20028;-68
2021/05/16 02:04:30;;;;;;;10.82;5.20;;;;;;;16.69;71.79;99072.06;5059720;28;20554;-68
2021/05/16 02:06:57;;;;;;;3.92;3.30;;;;;;;16.52;72.15;99083.22;5058669;28;20024;-69
2021/05/16 02:09:23;;;;;;;4.78;3.45;;;;;;;16.60;72.06;99076.78;5061879;28;20052;-68
2021/05/16 02:11:49;;;;;;;5.15;3.00;;;;;;;16.64;71.87;99082.53;5060903;28;20035;-68
2021/05/16 02:14:29;;;;;;;4.90;2.60;;;;;;;16.66;72.36;99080.50;5060240;28;20032;-73
2021/05/16 02:16:56;;;;;;;4.45;2.22;;;;;;;16.89;70.80;99078.88;5060155;28;20041;-70
2021/05/16 02:19:21;;;;;;;4.15;2.42;;;;;;;17.01;70.43;99088.84;5059740;28;20032;-73
2021/05/16 02:21:47;;;;;;;3.47;2.03;;;;;;;16.96;70.81;99078.81;5058855;28;20235;-68
2021/05/16 02:24:14;;;;;;;4.28;2.20;;;;;;;17.03;70.46;99090.28;5059742;28;20074;-68
2021/05/16 02:26:39;;;;;;;2.80;2.10;;;;;;;17.03;70.39;99084.94;5060626;28;20088;-68
2021/05/16 02:29:05;;;;;;;2.78;2.00;;;;;;;17.10;70.54;99080.34;5062823;28;20212;-74
2021/05/16 02:31:31;;;;;;;6.90;2.15;;;;;;;16.90;71.00;99085.88;5062177;28;20218;-73
2021/05/16 02:33:56;;;;;;;7.90;2.35;;;;;;;16.99;70.72;99075.72;5062334;28;20020;-74
2021/05/16 02:36:22;;;;;;;4.13;2.10;;;;;;;16.99;71.18;99089.06;5053763;28;20063;-73
2021/05/16 02:38:47;;;;;;;4.68;1.90;;;;;;;17.19;69.57;99084.38;5042682;28;20137;-74
2021/05/16 02:41:13;;;;;;;1.70;1.60;;;;;;;17.02;70.83;99082.47;5048909;28;20025;-68
2021/05/16 02:43:38;;;;;;;3.33;1.80;;;;;;;16.86;71.05;99081.16;5058844;28;20083;-74
2021/05/16 02:46:04;;;;;;;3.80;1.60;;;;;;;16.96;70.40;99078.81;5059501;28;20326;-68
2021/05/16 02:48:29;;;;;;;2.70;1.63;;;;;;;16.83;70.50;99057.53;5059714;28;20108;-68
2021/05/16 02:50:55;;;;;;;3.15;1.40;;;;;;;17.06;70.41;99097.03;5056611;28;20048;-74
2021/05/16 02:53:22;;;;;;;6.20;1.75;;;;;;;17.15;70.07;99095.72;5061437;28;20056;-73
2021/05/16 02:55:48;;;;;;;2.47;1.60;;;;;;;17.12;69.97;99090.81;5058257;28;20295;-68
2021/05/16 02:58:13;;;;;;;3.17;1.48;;;;;;;17.25;69.69;99096.03;5059212;28;20044;-69
2021/05/16 03:00:39;;;;;;;4.22;1.92;;;;;;;17.16;70.46;99103.53;5060285;28;20079;-68
2021/05/16 03:03:06;;;;;;;4.93;2.00;;;;;;;17.21;70.49;99105.53;5059065;28;20188;-74
2021/05/16 03:05:31;;;;;;;4.60;2.03;;;;;;;17.14;71.44;99099.44;5060325;28;20055;-68
2021/05/16 03:07:57;;;;;;;4.88;2.10;;;;;;;17.24;70.90;99099.75;5061249;28;20028;-74
2021/05/16 03:10:22;;;;;;;2.80;2.08;;;;;;;17.22;71.01;99101.84;5056932;28;20045;-74
2021/05/16 03:12:47;;;;;;;5.53;2.47;;;;;;;17.24;71.30;99102.44;5058239;28;20024;-68
2021/05/16 03:15:15;;;;;;;3.78;2.60;;;;;;;17.28;71.39;99108.16;5058999;28;20084;-68
2021/05/16 03:17:40;;;;;;;7.20;2.10;;;;;;;17.35;71.38;99115.09;5061102;28;20028;-74
2021/05/16 03:20:07;;;;;;;4.53;2.10;;;;;;;17.32;71.71;99117.38;5062185;28;20032;-68
2021/05/16 03:22:32;;;;;;;4.78;2.53;;;;;;;17.33;71.38;99117.16;5063148;28;20032;-68
2021/05/16 03:24:58;;;;;;;3.72;2.17;;;;;;;17.35;71.08;99111.59;5062582;28;20230;-73
2021/05/16 03:27:23;;;;;;;3.17;2.60;;;;;;;17.06;72.30;99105.88;5061913;28;20415;-74
2021/05/16 03:29:49;;;;;;;8.15;2.70;;;;;;;17.08;72.76;99103.81;5060967;28;20051;-68
2021/05/16 03:32:14;;;;;;;4.63;2.42;;;;;;;17.12;71.95;99106.88;5063276;28;20024;-68
2021/05/16 03:34:39;;;;;;;3.90;2.72;;;;;;;17.13;72.00;99114.66;5061939;28;20212;-74
2021/05/16 03:37:05;;;;;;;5.72;2.78;;;;;;;17.33;72.08;99119.00;5061761;28;20017;-69
2021/05/16 03:39:30;;;;;;;7.30;3.42;;;;;;;17.37;71.59;99123.72;5062936;28;20252;-68
2021/05/16 03:41:56;;;;;;;5.85;3.38;;;;;;;17.49;70.81;99113.09;5062833;28;20101;-73
2021/05/16 03:44:25;;;;;;;5.75;3.10;;;;;;;17.52;70.76;99121.50;5064525;28;20088;-73
2021/05/16 03:46:51;;;;;;;6.40;2.72;;;;;;;17.53;70.96;99116.97;5063720;28;20051;-68
2021/05/16 03:49:17;;;;;;;7.88;3.25;;;;;;;17.72;70.48;99125.88;5064878;28;20033;-74
2021/05/16 03:51:44;;;;;;;3.30;2.60;;;;;;;17.78;70.31;99124.97;5065142;28;20270;-68
2021/05/16 03:54:10;;;;;;;5.68;2.58;;;;;;;17.71;70.04;99132.28;5061177;28;20055;-74
2021/05/16 03:56:36;;;;;;;8.18;2.58;;;;;;;17.41;71.86;99127.56;5062330;28;20066;-68
2021/05/16 03:59:03;;;;;;;5.65;2.00;;;;;;;17.37;72.11;99129.06;5061387;28;20037;-73
2021/05/16 04:01:28;;;;;;;4.15;2.28;;;;;;;17.31;72.21;99121.91;5061836;28;20444;-73
2021/05/16 04:03:54;;;;;;;3.97;2.00;;;;;;;17.51;70.96;99143.13;5061916;28;20032;-73
2021/05/16 04:06:19;;;;;;;9.35;3.10;;;;;;;17.49;72.00;99145.22;5063549;28;20036;-73
2021/05/16 04:08:45;;;;;;;3.33;2.55;;;;;;;17.30;72.21;99140.88;5063799;28;20053;-74
2021/05/16 04:11:10;;;;;;;3.42;2.50;;;;;;;17.28;72.48;99154.47;5062311;28;20041;-73
2021/05/16 04:13:36;;;;;;;6.35;2.60;;;;;;;17.30;71.58;99152.38;5062236;28;20297;-69
2021/05/16 04:16:02;;;;;;;2.58;2.28;;;;;;;17.33;71.62;99140.44;5063018;28;20036;-73
2021/05/16 04:18:28;;;;;;;3.70;2.80;;;;;;;17.43;71.14;99149.59;5063486;28;20037;-68
2021/05/16 04:20:53;;;;;;;4.97;2.50;;;;;;;17.54;70.64;99156.06;5060592;28;20228;-69
2021/05/16 04:23:18;;;;;;;4.30;2.55;;;;;;;17.60;71.22;99143.66;5062393;28;20284;-68
2021/05/16 04:25:44;;;;;;;8.98;3.15;;;;;;;17.70;71.37;99147.53;5060930;28;20024;-74
2021/05/16 04:28:10;;;;;;;5.30;3.15;;;;;;;17.74;71.38;99155.94;5058986;28;20037;-73
2021/05/16 04:30:35;;;;;;;4.82;3.17;;;;;;;17.80;71.75;99153.16;5059883;28;21258;-68
2021/05/16 04:33:01;;;;;;;4.88;3.05;;;;;;;17.90;71.07;99147.28;5060646;28;20024;-68
2021/05/16 04:35:27;;;;;;;8.25;3.88;;;;;;;17.85;71.36;99157.88;5061039;28;20032;-73
2021/05/16 04:37:52;;;;;;;4.30;3.50;;;;;;;17.71;71.66;99146.47;5062553;28;20099;-68
2021/05/16 04:40:18;;;;;;;8.85;4.00;;;;;;;17.66;72.13;99156.16;5062383;28;20033;-73
2021/05/16 04:42:43;;;;;;;6.68;3.40;;;;;;;17.73;71.87;99152.44;5061708;28;20052;-69
2021/05/16 04:45:10;;;;;;;6.80;3.53;;;;;;;17.85;71.84;99147.97;5060632;28;20032;-73
2021/05/16 04:47:35;;;;;;;5.65;3.35;;;;;;;17.92;70.34;99152.44;5063876;28;20075;-69
2021/05/16 04:50:01;;;;;;;4.32;2.90;;;;;;;17.98;70.33;99160.38;5062298;28;20047;-69
2021/05/16 04:52:27;;;;;;;7.22;3.42;;;;;;;18.01;70.09;99153.75;5064712;28;20040;-73
2021/05/16 04:54:52;;;;;;;7.22;3.92;;;;;;;18.13;70.27;99157.31;5063383;28;20064;-69
2021/05/16 04:57:18;;;;;;;8.52;4.55;;;;;;;17.92;71.23;99144.41;5060477;28;20036;-68
2021/05/16 04:59:46;;;;;;;8.43;4.90;;;;;;;17.92;71.34;99139.03;5062076;28;20067;-68
2021/05/16 05:02:12;;;;;;;10.10;5.95;;;;;;;17.96;71.05;99154.44;5061765;28;20502;-74
2021/05/16 05:04:37;;;;;;;9.32;5.30;;;;;;;17.80;70.79;99152.34;5060906;28;20052;-73
2021/05/16 05:07:06;;;;;;;8.43;5.57;;;;;;;17.64;72.06;99152.88;5062447;28;20024;-74
2021/05/16 05:09:33;;;;;;;8.98;5.40;;;;;;;17.71;71.76;99148.34;5059828;28;20045;-73
2021/05/16 05:11:59;;;;;;;8.23;4.50;;;;;;;17.68;72.49;99146.88;5060925;28;20263;-74
2021/05/16 05:14:24;;;;;;;7.75;4.68;;;;;;;17.73;72.10;99155.09;5061477;28;20088;-69
2021/05/16 05:16:49;;;;;;;6.95;4.18;;;;;;;17.68;71.92;99140.72;5062842;28;20036;-74
2021/05/16 05:19:15;;;;;;;7.00;4.45;;;;;;;17.86;72.12;99156.81;5062032;28;20040;-68
2021/05/16 05:21:40;;;;;;;4.47;3.50;;;;;;;17.94;70.65;99156.53;5060543;28;20029;-69
2021/05/16 05:24:06;;;;;;;7.80;3.72;;;;;;;17.99;70.04;99145.13;5061582;28;20074;-73
2021/05/16 05:26:32;;;;;;;6.75;3.70;;;;;;;18.16;69.70;99154.19;5060618;28;20350;-74
2021/05/16 05:28:57;;;;;;;6.88;3.97;;;;;;;18.16;70.30;99155.00;5060479;28;20112;-68
2021/05/16 05:31:23;;;;;;;5.30;3.33;;;;;;;18.28;69.57;99168.47;5061853;28;20088;-68
2021/05/16 05:33:48;;;;;;;5.68;3.47;;;;;;;18.45;69.14;99164.13;5060663;28;20021;-68
2021/05/16 05:36:14;;;;;;;4.38;3.50;;;;;;;18.53;68.50;99173.69;5062859;28;20088;-73
2021/05/16 05:38:39;;;;;;;5.82;3.67;;;;;;;18.52;68.23;99170.22;5062745;28;20032;-73
2021/05/16 05:41:04;;;;;;;4.43;3.47;;;;;;;18.51;68.25;99168.56;5059961;28;20053;-68
2021/05/16 05:43:30;;;;;;;8.00;3.53;;;;;;;18.56;67.68;99183.97;5061593;28;20025;-71
2021/05/16 05:45:55;;;;;;;5.57;3.63;;;;;;;18.49;68.20;99180.56;5061889;28;20033;-68
2021/05/16 05:48:21;;;;;;;4.43;3.53;;;;;;;18.59;68.50;99186.19;5060799;28;20036;-68
2021/05/16 05:50:46;;;;;;;11.13;3.72;;;;;;;18.59;68.08;99178.16;5056899;28;20318;-68
2021/05/16 05:53:12;;;;;;;6.80;3.33;;;;;;;18.72;67.89;99193.28;5062312;28;20025;-74
2021/05/16 05:55:38;;;;;;;4.57;2.90;;;;;;;18.80;67.46;99195.66;5060195;28;20100;-74
2021/05/16 05:58:03;;;;;;;6.35;3.13;;;;;;;18.84;67.28;99196.84;5061252;28;20060;-68
2021/05/16 06:00:30;;;;;;;7.05;3.05;;;;;;;18.84;66.32;99204.06;5058840;28;20029;-74
2021/05/16 06:02:59;;;;;;;4.03;2.65;;;;;;;18.95;66.97;99206.78;5059980;28;20108;-69
2021/05/16 06:05:26;;;;;;;6.32;2.75;;;;;;;19.01;66.17;99203.19;5061738;28;20324;-73
2021/05/16 06:07:53;;;;;;;5.00;2.88;;;;;;;19.06;66.21;99186.41;5059515;28;20095;-73
2021/05/16 06:10:19;;;;;;;9.43;3.78;;;;;;;19.32;65.13;99201.25;5058895;28;20262;-68
2021/05/16 06:12:44;;;;;;;4.40;2.80;;;;;;;19.33;65.65;99201.03;5059238;28;20025;-74
2021/05/16 06:15:10;;;;;;;6.28;3.20;;;;;;;19.31;65.57;99197.75;5058800;28;20036;-73
2021/05/16 06:17:36;;;;;;;4.35;3.08;;;;;;;19.24;65.38;99202.41;5059545;28;20052;-74
2021/05/16 06:20:02;;;;;;;6.28;3.03;;;;;;;19.34;65.79;99202.66;5060491;28;20048;-69
2021/05/16 06:22:27;;;;;;;5.95;2.78;;;;;;;19.71;65.54;99197.91;5063012;28;20250;-74
2021/05/16 06:24:53;;;;;;;7.10;3.03;;;;;;;20.02;64.52;99185.97;5057790;28;20070;-68
2021/05/16 06:27:18;;;;;;;6.38;3.08;;;;;;;20.59;63.15;99198.69;5062539;28;20032;-70
2021/05/16 06:29:44;;;;;;;4.85;2.80;;;;;;;21.19;61.07;99187.41;5062119;28;20033;-76
2021/05/16 06:32:11;;;;;;;5.82;3.28;;;;;;;21.22;59.99;99190.47;5062587;28;20208;-76
2021/05/16 06:34:37;;;;;;;6.43;4.78;;;;;;;20.68;61.97;99195.38;5060940;28;20029;-70
2021/05/16 06:37:03;;;;;;;7.90;5.13;;;;;;;20.35;62.82;99195.25;5062367;28;20353;-76
2021/05/16 06:39:29;;;;;;;12.02;5.45;;;;;;;20.36;64.05;99197.69;5071053;28;20034;-75
2021/05/16 06:41:55;;;;;;;10.13;5.32;;;;;;;20.48;62.74;99202.25;5055924;28;20032;-71
2021/05/16 06:44:20;;;;;;;8.75;5.55;;;;;;;20.66;63.07;99197.50;5057877;28;20498;-76
2021/05/16 06:46:45;;;;;;;8.55;4.80;;;;;;;21.17;61.44;99194.91;5057508;28;20226;-75
2021/05/16 06:49:11;;;;;;;8.68;4.35;;;;;;;21.13;61.06;99194.59;5060351;28;20052;-76
2021/05/16 06:51:38;;;;;;;7.80;4.55;;;;;;;20.95;61.60;99195.63;5058105;28;20024;-75
2021/05/16 06:54:04;;;;;;;9.20;5.28;;;;;;;20.60;62.54;99193.09;5056095;28;20041;-71
2021/05/16 06:56:30;;;;;;;8.95;5.47;;;;;;;20.28;63.65;99190.00;5059007;28;20124;-68
2021/05/16 06:58:55;;;;;;;9.75;6.32;;;;;;;20.25;64.20;99195.88;5058496;28;20029;-74
2021/05/16 07:01:21;;;;;;;11.88;6.75;;;;;;;19.90;65.04;99189.75;5060319;28;20025;-73
2021/05/16 07:03:46;;;;;;;11.90;6.72;;;;;;;19.96;64.98;99194.19;5058897;28;20228;-68
2021/05/16 07:06:12;;;;;;;9.55;7.72;;;;;;;19.96;65.94;99194.19;5060125;28;20040;-73
2021/05/16 07:08:37;;;;;;;12.05;7.05;;;;;;;19.99;65.91;99197.22;5058699;28;20100;-68
2021/05/16 07:11:03;;;;;;;11.02;7.40;;;;;;;20.09;65.30;99197.41;5059821;28;20033;-74
2021/05/16 07:13:29;;;;;;;13.68;8.30;;;;;;;20.49;64.44;99195.81;5060505;28;20032;-76
2021/05/16 07:15:54;;;;;;;9.63;7.75;;;;;;;20.68;62.48;99195.38;5059253;28;20094;-71
2021/05/16 07:18:20;;;;;;;11.48;8.20;;;;;;;20.83;62.49;99189.50;5059697;28;20227;-72
2021/05/16 07:20:45;;;;;;;15.07;7.38;;;;;;;20.95;61.65;99192.94;5073193;28;20037;-71
2021/05/16 07:23:11;;;;;;;10.50;7.85;;;;;;;21.08;61.59;99188.31;5061303;28;20029;-72
2021/05/16 07:25:36;;;;;;;14.38;8.75;;;;;;;21.82;60.61;99183.53;5058052;28;20021;-76
2021/05/16 07:28:02;;;;;;;12.10;7.28;;;;;;;22.11;57.70;99182.38;5060471;28;20040;-71
2021/05/16 07:30:27;;;;;;;8.80;5.70;;;;;;;21.73;58.52;99180.44;5060827;28;20025;-71
2021/05/16 07:32:53;;;;;;;10.35;5.22;;;;;;;21.52;58.44;99175.84;5060121;28;20215;-75
2021/05/16 07:35:19;;;;;;;14.40;7.10;;;;;;;21.23;59.15;99186.72;5057530;28;20021;-76
2021/05/16 07:37:45;;;;;;;11.95;5.43;;;;;;;21.11;59.96;99183.25;5057064;28;20120;-76
2021/05/16 07:40:12;;;;;;;9.32;4.93;;;;;;;21.01;59.38;99189.28;5056544;28;20040;-75
2021/05/16 07:42:38;;;;;;;10.38;4.32;;;;;;;21.23;59.04;99181.31;5060597;28;20069;-70
2021/05/16 07:45:05;;;;;;;8.10;3.15;;;;;;;21.38;56.76;99182.63;5060550;28;20036;-70
2021/05/16 07:47:30;;;;;;;6.07;4.05;;;;;;;21.81;56.85;99181.91;5057493;28;20096;-71
2021/05/16 07:49:56;;;;;;;11.32;4.38;;;;;;;21.90;56.35;99170.47;5056135;28;20336;-76
2021/05/16 07:52:21;;;;;;;8.63;5.00;;;;;;;21.82;55.67;99178.16;5059421;28;20067;-75
2021/05/16 07:54:46;;;;;;;8.05;4.28;;;;;;;21.55;56.58;99189.63;5058800;28;20040;-70
2021/05/16 07:57:12;;;;;;;9.52;4.65;;;;;;;21.69;56.63;99179.31;5058635;28;20051;-76
2021/05/16 07:59:38;;;;;;;12.48;5.82;;;;;;;21.86;57.05;99174.75;5059458;28;20067;-71
2021/05/16 08:02:05;;;;;;;9.07;5.15;;;;;;;21.90;56.30;99183.13;5060479;28;20028;-70
2021/05/16 08:04:31;;;;;;;11.65;5.20;;;;;;;21.44;57.09;99178.94;5061790;28;20104;-76
2021/05/16 08:06:56;;;;;;;6.95;4.75;;;;;;;21.29;57.39;99185.72;5062508;28;20103;-76
2021/05/16 08:09:25;;;;;;;8.25;4.10;;;;;;;21.07;57.85;99189.38;5061888;28;20064;-76
2021/05/16 08:11:52;;;;;;;8.23;4.07;;;;;;;21.08;57.95;99193.69;5063127;28;20245;-76
2021/05/16 08:14:17;;;;;;;9.25;3.85;;;;;;;21.21;57.47;99183.41;5077447;28;20039;-75
2021/05/16 08:16:44;;;;;;;8.93;3.05;;;;;;;21.39;55.28;99185.06;5061268;28;20021;-76
2021/05/16 08:19:09;;;;;;;7.78;3.20;;;;;;;21.43;55.55;99191.59;5060512;28;20040;-70
2021/05/16 08:21:36;;;;;;;8.32;4.22;;;;;;;21.35;56.74;99186.63;5062689;28;20035;-76
2021/05/16 08:24:04;;;;;;;10.00;4.47;;;;;;;21.42;57.20;99181.88;5063869;28;20033;-75
2021/05/16 08:26:30;;;;;;;6.72;4.18;;;;;;;21.38;56.58;99179.94;5061844;28;20024;-71
2021/05/16 08:28:55;;;;;;;7.32;3.17;;;;;;;21.19;56.02;99173.94;5063179;28;20035;-76
2021/05/16 08:31:20;;;;;;;9.98;5.82;;;;;;;21.67;54.97;99167.97;5059304;28;21999;-70
2021/05/16 08:33:46;;;;;;;10.38;3.53;;;;;;;21.47;55.07;99181.16;5062143;28;20314;-71
2021/05/16 08:36:11;;;;;;;5.43;3.33;;;;;;;21.58;54.30;99158.69;5062791;28;20091;-77
2021/05/16 08:38:37;;;;;;;3.78;2.78;;;;;;;21.68;54.03;99173.13;5061437;28;20035;-76
2021/05/16 08:41:02;;;;;;;5.65;2.90;;;;;;;22.19;53.18;99163.06;5062841;28;20078;-76
2021/05/16 08:43:28;;;;;;;8.43;3.10;;;;;;;22.63;51.50;99165.69;5062558;28;20028;-71
2021/05/16 08:45:54;;;;;;;6.57;2.78;;;;;;;22.99;50.64;99168.78;5063399;28;20040;-71
2021/05/16 08:48:19;;;;;;;4.97;2.50;;;;;;;23.16;50.15;99156.78;5061966;28;20134;-71
2021/05/16 08:50:46;;;;;;;5.82;3.58;;;;;;;23.12;51.39;99144.88;5061707;28;20041;-76
2021/05/16 08:53:11;;;;;;;4.65;3.00;;;;;;;23.29;51.55;99176.31;5062692;28;20040;-76
2021/05/16 08:55:37;;;;;;;8.02;3.08;;;;;;;23.02;51.67;99166.38;5060382;28;20079;-76
2021/05/16 08:58:04;;;;;;;7.93;2.83;;;;;;;22.92;52.01;99183.31;5060860;28;20040;-76
2021/05/16 09:00:30;;;;;;;4.40;2.42;;;;;;;22.92;52.02;99182.50;5060916;28;20052;-71
2021/05/16 09:03:03;;;;;;;4.63;3.15;;;;;;;22.87;52.53;99182.41;5061361;28;20032;-76
2021/05/16 09:05:31;;;;;;;4.72;2.70;;;;;;;22.77;52.08;99174.19;5061669;28;20033;-71
2021/05/16 09:08:09;;;;;;;5.65;2.67;;;;;;;22.87;51.22;99174.31;5060049;28;20040;-77
2021/05/16 09:10:35;;;;;;;5.65;3.60;;;;;;;22.87;51.34;99169.72;5057706;28;20045;-70
2021/05/16 09:13:06;;;;;;;5.78;2.67;;;;;;;22.76;51.95;99176.06;5063753;28;20075;-72
2021/05/16 09:15:32;;;;;;;13.95;5.15;;;;;;;22.72;52.86;99177.66;5062187;28;20274;-75
2021/05/16 09:17:58;;;;;;;11.27;4.03;;;;;;;22.87;52.52;99174.31;5061134;28;20029;-76
2021/05/16 09:20:24;;;;;;;7.60;2.92;;;;;;;23.00;52.91;99170.41;5069767;28;20028;-75
2021/05/16 09:22:51;;;;;;;15.63;9.32;;;;;;;23.13;50.53;99165.41;5061613;28;20211;-72
2021/05/16 09:25:21;;;;;;;9.30;3.72;;;;;;;23.23;51.07;99170.88;5059442;28;20092;-76
2021/05/16 09:27:52;;;;;;;5.07;2.53;;;;;;;23.26;50.29;99169.56;5061106;28;20047;-71
2021/05/16 09:30:18;;;;;;;5.38;2.58;;;;;;;23.17;50.77;99173.78;5063257;28;20063;-71
2021/05/16 09:32:52;;;;;;;5.80;2.60;;;;;;;23.09;50.88;99171.56;5064834;28;20041;-71
2021/05/16 09:35:18;;;;;;;;;;;;;;;23.17;50.58;99168.41;5078912;28;20041;-76
2021/05/16 09:38:05;;;;;;;7.93;2.40;;;;;;;22.96;50.72;99170.13;5068089;28;19944;-71
2021/05/16 09:40:33;;;;;;;4.50;2.67;;;;;;;22.91;50.29;99164.66;5076966;28;20222;-76
2021/05/16 09:43:09;;;;;;;4.63;2.20;;;;;;;22.70;50.32;99158.19;5078943;28;20393;-71
2021/05/16 09:46:07;;;;;;;3.75;2.70;;;;;;;22.75;49.84;99166.34;5070178;28;20041;-71
2021/05/16 09:48:39;;;;;;;5.00;2.70;;;;;;;22.40;51.21;99163.28;5058390;28;20052;-71
2021/05/16 09:51:16;;;;;;;5.25;3.40;;;;;;;22.42;51.71;99166.53;5071977;28;20040;-71
2021/05/16 09:53:54;;;;;;;3.67;2.50;;;;;;;22.61;51.70;99163.25;5073757;28;20032;-71
2021/05/16 09:56:36;;;;;;;6.13;2.80;;;;;;;22.68;51.32;99157.66;5073258;28;20039;-76
2021/05/16 09:59:09;;;;;;;4.40;2.42;;;;;;;22.86;50.69;99160.00;5077664;28;20330;-76
2021/05/16 10:01:37;;;;;;;4.15;3.38;;;;;;;23.01;50.17;99150.44;5068206;28;20025;-74
2021/05/16 10:04:04;;;;;;;4.63;2.70;;;;;;;22.90;50.15;99154.94;5061353;28;20108;-76
2021/05/16 10:06:30;;;;;;;2.85;2.45;;;;;;;23.16;49.98;99162.19;5062778;28;20024;-76
2021/05/16 10:08:56;;;;;;;4.38;3.08;;;;;;;23.39;49.91;99152.91;5062656;28;20388;-76
2021/05/16 10:11:25;;;;;;;4.97;2.72;;;;;;;23.12;49.06;99147.56;5077967;28;20029;-71
2021/05/16 10:14:16;;;;;;;6.15;3.67;;;;;;;23.29;49.99;99147.41;5063490;28;20029;-76
2021/05/16 10:16:44;;;;;;;6.28;3.60;;;;;;;23.46;48.93;99136.47;5061305;28;20060;-72
2021/05/16 10:19:14;;;;;;;11.60;9.20;;;;;;;23.52;49.23;99130.00;5062659;28;20054;-72
2021/05/16 10:21:40;;;;;;;5.72;2.53;;;;;;;23.38;48.84;99120.72;5062344;28;20036;-71
2021/05/16 10:24:14;;;;;;;5.47;2.60;;;;;;;23.53;48.39;99091.09;5062079;28;20063;-76
2021/05/16 10:26:40;;;;;;;;;;;;;;;23.35;48.42;99119.38;5069159;28;20032;-75
2021/05/16 10:29:12;;;;;;;6.40;2.55;;;;;;;23.33;49.70;99118.81;5071216;28;19993;-76
2021/05/16 10:31:52;;;;;;;2.75;2.10;;;;;;;23.62;49.17;99121.19;5060771;28;20036;-76
2021/05/16 10:34:26;;;;;;;16.90;4.78;;;;;;;23.88;49.04;99112.94;5061298;28;20020;-76
2021/05/16 10:36:53;;;;;;;9.35;3.65;;;;;;;24.01;48.41;99114.34;5062278;28;20064;-69
2021/05/16 10:39:43;;;;;;;6.63;2.88;;;;;;;24.09;48.71;99103.03;5057178;28;20096;-69
2021/05/16 10:42:17;;;;;;;8.73;3.90;;;;;;;24.20;48.25;99098.47;5065909;28;20035;-74
2021/05/16 10:45:02;;;;;;;;;;;;;;;24.12;47.78;99098.97;5083146;28;20211;-69
2021/05/16 10:47:42;;;;;;;5.57;2.70;;;;;;;24.15;47.57;99090.34;5065343;28;19913;-74
2021/05/16 10:50:30;;;;;;;8.10;2.35;;;;;;;24.14;46.49;99086.81;5078896;28;20033;-69
2021/05/16 10:53:03;;;;;;;5.57;3.13;;;;;;;24.10;46.89;99093.03;5069310;28;20271;-70
2021/05/16 10:55:49;;;;;;;5.07;2.22;;;;;;;24.28;46.54;99079.03;5076010;28;20039;-74
2021/05/16 10:58:33;;;;;;;5.80;2.03;;;;;;;24.40;44.93;99086.91;5061040;28;20040;-74
2021/05/16 11:01:06;;;;;;;4.85;2.45;;;;;;;24.46;44.20;99075.81;5072197;28;20041;-75
2021/05/16 11:04:00;;;;;;;5.75;2.63;;;;;;;24.49;44.40;99075.28;5070785;28;20032;-70
2021/05/16 11:06:31;;;;;;;5.13;3.00;;;;;;;24.18;46.42;99073.56;5072485;28;20349;-74
2021/05/16 11:09:00;;;;;;;4.72;2.88;;;;;;;23.85;46.52;99072.91;5075021;28;20338;-69
2021/05/16 11:11:48;;;;;;;5.32;2.92;;;;;;;23.80;47.01;99047.75;5068332;28;20043;-74
2021/05/16 11:14:30;;;;;;;4.03;2.65;;;;;;;23.85;47.36;99061.28;5056983;28;20040;-69
2021/05/16 11:17:04;;;;;;;5.43;2.03;;;;;;;24.07;47.21;99059.22;5059042;28;20032;-69
2021/05/16 11:19:33;;;;;;;2.78;1.85;;;;;;;24.08;46.15;99050.00;5060794;28;20048;-69
2021/05/16 11:22:13;;;;;;;7.55;2.88;;;;;;;24.23;47.62;99051.94;5058739;28;20056;-69
2021/05/16 11:24:49;;;;;;;4.75;2.28;;;;;;;24.28;46.78;99049.28;5057000;28;20091;-74
2021/05/16 11:27:19;;;;;;;2.72;2.30;;;;;;;24.13;45.96;99050.03;5059645;28;20048;-69
2021/05/16 11:29:44;;;;;;;4.57;1.92;;;;;;;24.13;45.86;99058.13;5055866;28;20021;-69
2021/05/16 11:32:10;;;;;;;5.82;2.20;;;;;;;24.25;46.11;99054.38;5060915;28;20103;-74
2021/05/16 11:34:35;;;;;;;4.20;2.17;;;;;;;24.23;44.01;99054.66;5059758;28;20044;-69